Rechercher aéroport 
image banner adimage banner ad
image banner ad

SSJK - Júlio de Castilho Airport

Situé à Júlio De Castilho, Brazil

ICAO - SSJK, IATA -

Données fournies par Airmate  

Information générale

Coordonnées: S29°9'11" W53°44'36"
Élévation : 1633 feet MSL.
Variation magnétique : -15° East
Voir autres Aéroports à Rio Grande do Sul

Données opérationnelles

Accessible au public
Heure actuelle UTC:
Heure actuelle locale:
Météo à : SBSM - Santa Maria Airport ( 62 km )
METAR: SBSM 301400Z VRB04KT 9999 FEW006 24/21 Q1010
TAF: TAF SBSM 300900Z 3012/3024 10010KT 9999 TSRA SCT030 FEW040CB TN20/3012Z TX24/3018Z BECMG 3014/3016 CAVOK RMK PED
Voir NOTAMs / SUP AIP / TFR affectant cet aéroport [VIEW]
Fréquences de communication: [VIEW]

Pistes:

Identifiant RWYQFULongueur (ft)Largeur (ft)SurfaceLDA (ft)
12390498UNK
30390498UNK

Coordonnées de l'aéroport

Adresse: Júlio De Castilho Brazil

Vue satellite de SSJK